createdAt,value
2023-05-02T00:02:17.310Z,6.50
2023-05-02T00:04:44.208Z,5.80
2023-05-02T00:07:12.380Z,6.35
2023-05-02T00:09:39.138Z,6.35
2023-05-02T00:12:07.205Z,6.55
2023-05-02T00:14:33.973Z,6.75
2023-05-02T00:17:01.894Z,6.30
2023-05-02T00:19:32.346Z,6.68
2023-05-02T00:22:00.264Z,6.20
2023-05-02T00:24:36.344Z,6.28
2023-05-02T00:27:04.685Z,6.30
2023-05-02T00:29:31.478Z,6.60
2023-05-02T00:31:58.175Z,6.43
2023-05-02T00:34:29.836Z,6.22
2023-05-02T00:36:56.587Z,6.22
2023-05-02T00:39:23.417Z,6.32
2023-05-02T00:42:00.280Z,6.00
2023-05-02T00:44:27.144Z,6.07
2023-05-02T00:46:57.269Z,6.22
2023-05-02T00:49:24.218Z,5.40
2023-05-02T00:51:51.051Z,5.60
2023-05-02T00:54:18.959Z,5.60
2023-05-02T00:56:45.834Z,5.40
2023-05-02T00:59:14.849Z,5.97
2023-05-02T01:02:00.685Z,5.50
2023-05-02T01:04:48.153Z,5.70
2023-05-02T01:07:36.462Z,6.03
2023-05-02T01:10:15.137Z,5.82
2023-05-02T01:13:27.987Z,5.72
2023-05-02T01:15:57.956Z,5.45
2023-05-02T01:18:27.556Z,5.78
2023-05-02T01:21:01.157Z,5.63
2023-05-02T01:23:30.774Z,5.63
2023-05-02T01:26:17.600Z,5.93
2023-05-02T01:28:56.236Z,5.82
2023-05-02T01:31:25.174Z,6.13
2023-05-02T01:33:53.444Z,5.50
2023-05-02T01:36:21.077Z,5.75
2023-05-02T01:38:50.482Z,5.85
2023-05-02T01:41:18.253Z,6.28
2023-05-02T01:43:47.674Z,5.95
2023-05-02T01:46:14.977Z,5.70
2023-05-02T01:48:47.287Z,5.70
2023-05-02T01:51:19.764Z,6.22
2023-05-02T01:53:49.367Z,6.03
2023-05-02T01:56:20.420Z,5.28
2023-05-02T01:58:49.507Z,5.88
2023-05-02T02:01:20.004Z,5.45
2023-05-02T02:03:48.336Z,5.72
2023-05-02T02:06:19.635Z,6.53
2023-05-02T02:08:49.604Z,5.68
2023-05-02T02:11:21.409Z,5.82
2023-05-02T02:13:52.986Z,5.55
2023-05-02T02:16:30.093Z,5.82
2023-05-02T02:19:02.734Z,5.57
2023-05-02T02:21:32.677Z,5.95
2023-05-02T02:24:03.818Z,5.25
2023-05-02T02:26:31.812Z,5.90
2023-05-02T02:28:59.933Z,5.75
2023-05-02T02:31:44.863Z,5.70
2023-05-02T02:34:13.048Z,5.90
2023-05-02T02:36:48.512Z,5.15
2023-05-02T02:40:01.274Z,5.50
2023-05-02T02:42:48.417Z,5.88
2023-05-02T02:45:34.651Z,5.97
2023-05-02T02:51:09.360Z,5.20
2023-05-02T02:54:00.166Z,5.25
2023-05-02T02:56:40.071Z,5.03
2023-05-02T02:59:19.425Z,5.28
2023-05-02T03:01:56.763Z,5.40
2023-05-02T03:04:27.307Z,5.63
2023-05-02T03:06:55.621Z,5.47
2023-05-02T03:09:25.646Z,4.82
2023-05-02T03:11:54.726Z,5.50
2023-05-02T03:14:21.969Z,5.28
2023-05-02T03:16:49.880Z,5.00
2023-05-02T03:19:16.545Z,5.05
2023-05-02T03:21:43.211Z,5.32
2023-05-02T03:24:09.861Z,5.15
2023-05-02T03:26:36.577Z,4.97
2023-05-02T03:29:03.223Z,4.60
2023-05-02T03:31:29.941Z,4.55
2023-05-02T03:33:56.655Z,4.90
2023-05-02T03:36:23.493Z,4.63
2023-05-02T03:38:52.205Z,4.55
2023-05-02T03:41:20.110Z,4.50
2023-05-02T03:43:47.849Z,4.38
2023-05-02T03:46:15.851Z,4.97
2023-05-02T03:48:42.720Z,5.03
2023-05-02T03:51:10.726Z,4.28
2023-05-02T03:53:37.652Z,4.90
2023-05-02T03:56:06.830Z,4.72
2023-05-02T03:58:35.317Z,4.50
2023-05-02T04:01:02.564Z,4.68
2023-05-02T04:03:30.154Z,4.45
2023-05-02T04:05:56.962Z,4.80
2023-05-02T04:08:24.187Z,4.43
2023-05-02T04:10:51.653Z,4.55
2023-05-02T04:13:18.412Z,4.85
2023-05-02T04:15:46.482Z,5.05
2023-05-02T04:18:13.257Z,4.80
2023-05-02T04:20:43.571Z,4.85
2023-05-02T04:23:13.129Z,5.43
2023-05-02T04:25:40.905Z,5.82
2023-05-02T04:28:07.649Z,5.90
2023-05-02T04:30:34.436Z,5.72
2023-05-02T04:33:01.188Z,5.43
2023-05-02T04:35:27.935Z,5.75
2023-05-02T04:37:54.628Z,5.25
2023-05-02T04:40:21.285Z,5.13
2023-05-02T04:42:47.987Z,4.97
2023-05-02T04:45:14.743Z,5.40
2023-05-02T04:47:41.501Z,4.90
2023-05-02T04:50:10.016Z,5.15
2023-05-02T04:52:36.740Z,5.10
2023-05-02T04:55:03.980Z,5.03
2023-05-02T04:57:31.940Z,4.85
2023-05-02T05:00:00.281Z,4.82
2023-05-02T05:02:28.866Z,4.72
2023-05-02T05:04:56.815Z,4.72
2023-05-02T05:07:24.444Z,4.85
2023-05-02T05:09:53.159Z,5.00
2023-05-02T05:12:20.147Z,4.97
2023-05-02T05:14:46.875Z,5.20
2023-05-02T05:17:13.566Z,5.10
2023-05-02T05:19:40.240Z,5.68
2023-05-02T05:22:06.934Z,5.80
2023-05-02T05:24:33.624Z,4.82
2023-05-02T05:27:00.277Z,5.43
2023-05-02T05:29:26.992Z,5.75
2023-05-02T05:31:53.775Z,6.43
2023-05-02T05:34:23.349Z,6.00
2023-05-02T05:36:50.119Z,5.97
2023-05-02T05:39:16.850Z,6.22
2023-05-02T05:41:43.616Z,6.05
2023-05-02T05:44:10.490Z,5.45
2023-05-02T05:46:37.159Z,5.65
2023-05-02T05:49:03.982Z,5.82
2023-05-02T05:51:30.713Z,6.05
2023-05-02T05:53:57.378Z,6.90
2023-05-02T05:56:24.556Z,6.53
2023-05-02T05:58:51.247Z,6.88
2023-05-02T06:01:19.208Z,6.93
2023-05-02T06:03:45.953Z,6.85
2023-05-02T06:06:12.831Z,7.68
2023-05-02T06:08:39.804Z,7.35
2023-05-02T06:11:10.843Z,7.03
2023-05-02T06:13:38.163Z,8.38
2023-05-02T06:16:05.680Z,7.25
2023-05-02T06:18:32.425Z,7.72
2023-05-02T06:21:05.068Z,7.97
2023-05-02T06:23:32.288Z,8.55
2023-05-02T06:26:00.235Z,9.85
2023-05-02T06:28:27.165Z,8.68
2023-05-02T06:31:05.796Z,9.30
2023-05-02T06:33:33.536Z,11.45
2023-05-02T06:36:01.921Z,9.40
2023-05-02T06:38:29.821Z,9.65
2023-05-02T06:40:57.038Z,9.77
2023-05-02T06:43:24.294Z,11.77
2023-05-02T06:45:54.058Z,13.25
2023-05-02T06:48:20.795Z,12.93
2023-05-02T06:50:49.499Z,12.73
2023-05-02T06:53:17.768Z,12.15
2023-05-02T06:55:48.488Z,12.40
2023-05-02T06:58:17.738Z,13.85
2023-05-02T07:00:47.539Z,13.27
2023-05-02T07:03:16.597Z,16.85
2023-05-02T07:05:43.316Z,13.48
2023-05-02T07:08:10.011Z,11.80
2023-05-02T07:10:37.043Z,12.82
2023-05-02T07:13:05.178Z,11.60
2023-05-02T07:15:32.751Z,12.15
2023-05-02T07:18:01.198Z,11.32
2023-05-02T07:20:27.942Z,11.32
2023-05-02T07:22:54.798Z,12.00
2023-05-02T07:25:21.644Z,15.27
2023-05-02T07:27:48.958Z,12.30
2023-05-02T07:30:17.011Z,11.60
2023-05-02T07:32:45.382Z,10.68
2023-05-02T07:35:24.858Z,10.95
2023-05-02T07:37:51.729Z,9.75
2023-05-02T07:40:21.998Z,10.88
2023-05-02T07:42:51.220Z,10.13
2023-05-02T07:45:19.308Z,10.55
2023-05-02T07:47:46.700Z,9.93
2023-05-02T07:50:13.484Z,9.73
2023-05-02T07:52:40.244Z,9.95
2023-05-02T07:55:07.265Z,12.43
2023-05-02T07:57:33.988Z,15.55
2023-05-02T08:00:00.933Z,11.63
2023-05-02T08:02:28.178Z,9.45
2023-05-02T08:04:56.305Z,8.48
2023-05-02T08:07:23.286Z,8.43
2023-05-02T08:09:49.996Z,9.98
2023-05-02T08:12:16.659Z,8.45
2023-05-02T08:14:44.655Z,10.23
2023-05-02T08:17:12.553Z,10.90
2023-05-02T08:19:40.375Z,7.65
2023-05-02T08:22:07.284Z,6.88
2023-05-02T08:24:35.441Z,6.28
2023-05-02T08:27:05.988Z,6.88
2023-05-02T08:29:35.196Z,5.93
2023-05-02T08:32:03.888Z,6.80
2023-05-02T08:34:32.616Z,7.65
2023-05-02T08:36:59.680Z,9.35
2023-05-02T08:39:26.318Z,8.82
2023-05-02T08:41:53.159Z,10.63
2023-05-02T08:44:20.194Z,10.57
2023-05-02T08:46:49.893Z,8.52
2023-05-02T08:49:18.268Z,10.05
2023-05-02T08:51:46.100Z,8.93
2023-05-02T08:54:17.181Z,7.57
2023-05-02T08:56:44.076Z,10.30
2023-05-02T08:59:10.863Z,7.75
2023-05-02T09:01:39.490Z,6.95
2023-05-02T09:04:08.866Z,7.40
2023-05-02T09:06:36.619Z,7.68
2023-05-02T09:09:03.387Z,8.10
2023-05-02T09:11:31.489Z,7.55
2023-05-02T09:13:58.337Z,7.30
2023-05-02T09:16:34.159Z,7.05
2023-05-02T09:21:40.161Z,6.53
2023-05-02T09:24:22.315Z,6.50
2023-05-02T09:27:05.044Z,6.80
2023-05-02T09:29:33.790Z,9.10
2023-05-02T09:32:00.584Z,6.95
2023-05-02T09:34:27.354Z,6.38
2023-05-02T09:36:54.783Z,6.80
2023-05-02T09:39:28.784Z,6.97
2023-05-02T09:41:55.794Z,7.07
2023-05-02T09:44:26.271Z,7.20
2023-05-02T09:46:56.755Z,6.50
2023-05-02T09:49:40.374Z,6.65
2023-05-02T09:52:18.629Z,6.65
2023-05-02T09:54:45.473Z,5.90
2023-05-02T09:57:12.164Z,5.45
2023-05-02T09:59:40.862Z,5.82
2023-05-02T10:02:08.434Z,5.10
2023-05-02T10:04:37.521Z,5.20
2023-05-02T10:07:04.548Z,4.97
2023-05-02T10:09:35.882Z,4.72
2023-05-02T10:12:05.573Z,4.57
2023-05-02T10:14:39.254Z,4.63
2023-05-02T10:17:14.537Z,5.18
2023-05-02T10:20:01.416Z,4.25
2023-05-02T10:22:28.724Z,3.90
2023-05-02T10:24:59.825Z,4.15
2023-05-02T10:27:30.271Z,4.10
2023-05-02T10:30:01.719Z,4.80
2023-05-02T10:32:32.664Z,5.63
2023-05-02T10:35:05.217Z,5.47
2023-05-02T10:37:36.054Z,4.57
2023-05-02T10:40:04.732Z,5.15
2023-05-02T10:42:40.005Z,5.00
2023-05-02T10:45:38.182Z,4.38
2023-05-02T10:48:25.220Z,3.70
2023-05-02T10:50:54.297Z,3.88
2023-05-02T10:53:35.420Z,3.67
2023-05-02T10:56:11.319Z,4.10
2023-05-02T10:58:38.190Z,3.60
2023-05-02T11:01:25.710Z,3.72
2023-05-02T11:04:23.772Z,4.32
2023-05-02T11:06:59.521Z,4.45
2023-05-02T11:11:56.576Z,4.70
2023-05-02T11:14:26.403Z,5.35
2023-05-02T11:16:59.257Z,5.57
2023-05-02T11:19:31.377Z,6.82
2023-05-02T11:22:18.677Z,7.07
2023-05-02T11:24:47.321Z,7.22
2023-05-02T11:27:29.807Z,6.95
2023-05-02T11:30:00.315Z,7.15
2023-05-02T11:32:45.394Z,7.10
2023-05-02T11:35:19.507Z,6.93
2023-05-02T11:38:07.700Z,6.78
2023-05-02T11:40:34.565Z,6.57
2023-05-02T11:43:12.469Z,6.45
2023-05-02T11:45:39.274Z,6.97
2023-05-02T11:48:07.209Z,7.28
2023-05-02T11:50:46.674Z,5.95
2023-05-02T11:53:18.271Z,5.75
2023-05-02T11:55:46.936Z,5.38
2023-05-02T11:58:14.997Z,5.35
2023-05-02T12:00:42.671Z,4.35
2023-05-02T12:03:18.816Z,4.50
2023-05-02T12:05:46.210Z,4.70
2023-05-02T12:08:19.406Z,4.55
2023-05-02T12:10:46.231Z,4.35
2023-05-02T12:13:13.162Z,3.95
2023-05-02T12:15:40.664Z,3.90
2023-05-02T12:18:07.956Z,4.22
2023-05-02T12:20:35.360Z,4.03
2023-05-02T12:23:02.393Z,3.95
2023-05-02T12:25:29.206Z,3.97
2023-05-02T12:28:03.201Z,4.28
2023-05-02T12:30:31.629Z,3.83
2023-05-02T12:33:01.329Z,4.03
2023-05-02T12:35:34.102Z,3.97
2023-05-02T12:38:19.867Z,3.88
2023-05-02T12:40:54.691Z,4.80
2023-05-02T12:43:21.679Z,4.20
2023-05-02T12:45:50.548Z,4.35
2023-05-02T12:48:28.235Z,4.43
2023-05-02T12:50:55.828Z,4.20
2023-05-02T12:53:41.966Z,4.85
2023-05-02T12:58:47.772Z,4.97
2023-05-02T13:01:15.941Z,4.30
2023-05-02T13:03:44.390Z,4.60
2023-05-02T13:06:12.539Z,4.70
2023-05-02T13:08:39.413Z,4.35
2023-05-02T13:11:07.236Z,4.70
2023-05-02T13:13:35.175Z,5.13
2023-05-02T13:16:05.072Z,4.63
2023-05-02T13:18:32.013Z,4.95
2023-05-02T13:20:58.767Z,5.00
2023-05-02T13:23:25.499Z,5.68
2023-05-02T13:25:52.198Z,5.63
2023-05-02T13:28:19.098Z,4.88
2023-05-02T13:30:45.804Z,4.68
2023-05-02T13:33:12.934Z,4.43
2023-05-02T13:35:39.849Z,4.63
2023-05-02T13:38:06.628Z,4.65
2023-05-02T13:40:33.301Z,4.28
2023-05-02T13:43:01.520Z,4.47
2023-05-02T13:45:28.277Z,4.20
2023-05-02T13:47:55.448Z,4.78
2023-05-02T13:50:22.202Z,4.65
2023-05-02T13:52:51.046Z,4.38
2023-05-02T13:55:27.097Z,4.32
2023-05-02T13:57:55.505Z,4.57
2023-05-02T14:00:22.301Z,4.70
2023-05-02T14:02:49.128Z,4.40
2023-05-02T14:05:16.117Z,4.47
2023-05-02T14:07:42.899Z,4.32
2023-05-02T14:10:09.938Z,4.60
2023-05-02T14:12:36.748Z,4.60
2023-05-02T14:15:04.222Z,4.25
2023-05-02T14:17:31.461Z,4.32
2023-05-02T14:19:58.900Z,4.13
2023-05-02T14:22:26.913Z,4.22
2023-05-02T14:24:54.916Z,4.53
2023-05-02T14:27:21.770Z,4.45
2023-05-02T14:29:51.332Z,4.25
2023-05-02T14:32:18.024Z,4.38
2023-05-02T14:34:45.016Z,4.63
2023-05-02T14:37:11.708Z,4.40
2023-05-02T14:39:38.451Z,4.00
2023-05-02T14:42:05.188Z,3.97
2023-05-02T14:44:32.077Z,3.97
2023-05-02T14:47:01.396Z,4.28
2023-05-02T14:49:28.162Z,4.18
2023-05-02T14:51:56.403Z,4.03
2023-05-02T14:54:28.925Z,4.18
2023-05-02T14:56:55.873Z,4.00
2023-05-02T14:59:22.931Z,3.90
2023-05-02T15:01:53.720Z,4.38
2023-05-02T15:04:21.778Z,3.90
2023-05-02T15:06:48.798Z,4.82
2023-05-02T15:09:15.576Z,4.70
2023-05-02T15:11:44.323Z,4.15
2023-05-02T15:14:14.799Z,4.38
2023-05-02T15:16:43.509Z,4.47
2023-05-02T15:19:10.406Z,3.90
2023-05-02T15:21:38.397Z,4.60
2023-05-02T15:24:05.981Z,4.30
2023-05-02T15:26:33.294Z,4.38
2023-05-02T15:28:59.989Z,4.00
2023-05-02T15:31:26.774Z,3.90
2023-05-02T15:33:54.043Z,3.90
2023-05-02T15:36:21.030Z,4.28
2023-05-02T15:38:47.693Z,4.43
2023-05-02T15:41:14.462Z,4.20
2023-05-02T15:43:41.224Z,4.45
2023-05-02T15:46:08.005Z,4.57
2023-05-02T15:48:34.956Z,4.00
2023-05-02T15:51:01.879Z,4.60
2023-05-02T15:53:29.213Z,4.05
2023-05-02T15:55:57.551Z,5.00
2023-05-02T15:58:26.683Z,4.00
2023-05-02T16:00:54.589Z,4.03
2023-05-02T16:03:21.573Z,3.70
2023-05-02T16:05:48.637Z,4.50
2023-05-02T16:08:15.368Z,4.50
2023-05-02T16:10:42.059Z,4.70
2023-05-02T16:13:09.117Z,4.38
2023-05-02T16:15:35.806Z,4.18
2023-05-02T16:18:02.805Z,4.10
2023-05-02T16:20:29.536Z,4.25
2023-05-02T16:22:56.293Z,4.05
2023-05-02T16:25:23.184Z,4.20
2023-05-02T16:27:49.998Z,4.28
2023-05-02T16:30:17.911Z,3.90
2023-05-02T16:32:45.762Z,4.32
2023-05-02T16:35:13.831Z,4.47
2023-05-02T16:37:41.450Z,4.28
2023-05-02T16:40:10.417Z,3.97
2023-05-02T16:42:48.359Z,4.70
2023-05-02T16:45:16.427Z,4.57
2023-05-02T16:47:45.704Z,4.35
2023-05-02T16:50:17.160Z,4.53
2023-05-02T16:52:45.968Z,5.30
2023-05-02T16:55:12.661Z,4.07
2023-05-02T16:57:39.356Z,3.95
2023-05-02T17:00:07.743Z,4.63
2023-05-02T17:02:34.525Z,4.78
2023-05-02T17:05:01.350Z,4.30
2023-05-02T17:07:28.113Z,3.92
2023-05-02T17:09:57.481Z,4.00
2023-05-02T17:12:24.350Z,4.30
2023-05-02T17:14:51.148Z,4.18
2023-05-02T17:17:19.095Z,4.30
2023-05-02T17:19:45.864Z,4.22
2023-05-02T17:22:14.048Z,3.78
2023-05-02T17:24:41.082Z,4.57
2023-05-02T17:27:08.993Z,3.60
2023-05-02T17:29:35.729Z,3.60
2023-05-02T17:32:03.109Z,4.00
2023-05-02T17:34:29.921Z,4.10
2023-05-02T17:36:56.663Z,3.45
2023-05-02T17:39:23.610Z,3.55
2023-05-02T17:41:50.502Z,4.07
2023-05-02T17:44:17.242Z,3.97
2023-05-02T17:46:44.025Z,3.83
2023-05-02T17:49:10.895Z,3.72
2023-05-02T17:51:37.664Z,4.50
2023-05-02T17:54:05.886Z,3.95
2023-05-02T17:56:32.535Z,4.60
2023-05-02T17:58:59.506Z,4.32
2023-05-02T18:01:28.839Z,4.25
2023-05-02T18:03:55.848Z,4.30
2023-05-02T18:06:25.400Z,4.00
2023-05-02T18:08:53.299Z,3.75
2023-05-02T18:11:20.729Z,3.70
2023-05-02T18:13:47.463Z,4.05
2023-05-02T18:16:14.378Z,4.00
2023-05-02T18:18:41.577Z,4.97
2023-05-02T18:21:08.305Z,3.88
2023-05-02T18:23:35.389Z,4.30
2023-05-02T18:26:02.128Z,3.50
2023-05-02T18:28:28.939Z,4.63
2023-05-02T18:30:55.683Z,4.22
2023-05-02T18:33:22.428Z,3.65
2023-05-02T18:35:50.257Z,3.85
2023-05-02T18:38:17.604Z,3.50
2023-05-02T18:40:48.410Z,3.47
2023-05-02T18:43:16.560Z,3.50
2023-05-02T18:45:43.382Z,3.22
2023-05-02T18:48:20.870Z,3.58
2023-05-02T18:50:58.665Z,3.30
2023-05-02T18:53:27.515Z,3.80
2023-05-02T18:55:57.103Z,3.15
2023-05-02T18:58:24.256Z,3.67
2023-05-02T19:00:51.015Z,3.00
2023-05-02T19:03:18.025Z,3.15
2023-05-02T19:05:45.033Z,3.20
2023-05-02T19:08:11.949Z,3.42
2023-05-02T19:10:38.900Z,3.20
2023-05-02T19:13:05.680Z,2.90
2023-05-02T19:15:33.824Z,2.78
2023-05-02T19:18:00.835Z,3.40
2023-05-02T19:20:27.952Z,3.10
2023-05-02T19:23:07.085Z,3.53
2023-05-02T19:25:42.594Z,3.13
2023-05-02T19:28:10.764Z,3.13
2023-05-02T19:30:42.143Z,3.45
2023-05-02T19:33:13.807Z,3.00
2023-05-02T19:35:41.610Z,3.35
2023-05-02T19:38:08.290Z,3.58
2023-05-02T19:40:34.981Z,3.13
2023-05-02T19:43:01.889Z,3.10
2023-05-02T19:45:35.798Z,3.60
2023-05-02T19:48:04.521Z,3.70
2023-05-02T19:50:45.780Z,3.72
2023-05-02T19:53:12.924Z,3.55
2023-05-02T19:55:52.930Z,3.30
2023-05-02T19:58:25.100Z,3.17
2023-05-02T20:00:57.484Z,3.42
2023-05-02T20:03:27.527Z,3.00
2023-05-02T20:05:56.668Z,3.22
2023-05-02T20:08:24.749Z,3.03
2023-05-02T20:10:54.650Z,2.75
2023-05-02T20:13:21.463Z,3.00
2023-05-02T20:15:52.210Z,2.92
2023-05-02T20:18:21.501Z,2.53
2023-05-02T20:20:51.032Z,3.25
2023-05-02T20:23:18.130Z,2.65
2023-05-02T20:25:45.211Z,2.70
2023-05-02T20:28:12.129Z,2.38
2023-05-02T20:30:42.062Z,2.75
2023-05-02T20:33:15.371Z,2.60
2023-05-02T20:35:47.594Z,3.47
2023-05-02T20:38:16.721Z,2.80
2023-05-02T20:40:45.483Z,2.80
2023-05-02T20:43:12.366Z,2.85
2023-05-02T20:45:39.313Z,2.63
2023-05-02T20:48:06.324Z,2.78
2023-05-02T20:50:34.746Z,2.67
2023-05-02T20:53:02.174Z,2.88
2023-05-02T20:55:30.486Z,2.95
2023-05-02T20:57:59.614Z,3.10
2023-05-02T21:00:27.047Z,2.60
2023-05-02T21:02:54.271Z,3.28
2023-05-02T21:05:25.870Z,3.22
2023-05-02T21:07:53.423Z,2.58
2023-05-02T21:10:20.180Z,2.92
2023-05-02T21:12:48.278Z,2.67
2023-05-02T21:15:15.256Z,2.60
2023-05-02T21:17:41.962Z,3.10
2023-05-02T21:20:09.073Z,2.42
2023-05-02T21:22:36.495Z,3.05
2023-05-02T21:25:05.010Z,2.85
2023-05-02T21:27:32.102Z,2.72
2023-05-02T21:29:59.272Z,3.13
2023-05-02T21:32:26.085Z,2.97
2023-05-02T21:34:52.884Z,3.13
2023-05-02T21:37:20.943Z,2.70
2023-05-02T21:39:49.037Z,3.00
2023-05-02T21:42:17.059Z,2.83
2023-05-02T21:44:43.763Z,2.55
2023-05-02T21:47:10.541Z,3.05
2023-05-02T21:49:41.179Z,2.75
2023-05-02T21:52:10.209Z,2.72
2023-05-02T21:54:36.974Z,2.95
2023-05-02T21:57:03.759Z,2.67
2023-05-02T21:59:30.568Z,2.90
2023-05-02T22:01:57.334Z,2.42
2023-05-02T22:04:24.226Z,2.72
2023-05-02T22:06:52.233Z,2.85
2023-05-02T22:09:19.910Z,2.88
2023-05-02T22:11:46.893Z,2.60
2023-05-02T22:14:14.771Z,2.97
2023-05-02T22:16:41.600Z,2.67
2023-05-02T22:19:10.656Z,3.25
2023-05-02T22:21:38.755Z,2.78
2023-05-02T22:24:05.867Z,3.15
2023-05-02T22:26:33.593Z,2.55
2023-05-02T22:29:01.706Z,2.88
2023-05-02T22:31:28.387Z,2.83
2023-05-02T22:33:55.102Z,2.55
2023-05-02T22:36:21.843Z,2.58
2023-05-02T22:38:48.497Z,2.47
2023-05-02T22:41:15.262Z,2.83
2023-05-02T22:43:41.946Z,2.70
2023-05-02T22:46:08.649Z,2.70
2023-05-02T22:48:35.430Z,2.72
2023-05-02T22:51:03.949Z,2.70
2023-05-02T22:53:30.618Z,2.40
2023-05-02T22:55:57.309Z,2.65
2023-05-02T22:58:24.061Z,2.80
2023-05-02T23:00:50.751Z,2.63
2023-05-02T23:03:17.578Z,2.63
2023-05-02T23:05:44.318Z,2.65
2023-05-02T23:08:11.019Z,2.78
2023-05-02T23:10:37.799Z,2.90
2023-05-02T23:13:04.486Z,2.50
2023-05-02T23:15:31.141Z,2.88
2023-05-02T23:17:57.886Z,2.47
2023-05-02T23:20:24.601Z,3.30
2023-05-02T23:22:51.299Z,3.10
2023-05-02T23:25:19.777Z,2.60
2023-05-02T23:27:47.474Z,3.38
2023-05-02T23:30:15.322Z,3.15
2023-05-02T23:32:48.682Z,2.60
2023-05-02T23:35:15.562Z,2.75
2023-05-02T23:37:42.304Z,2.70
2023-05-02T23:40:09.372Z,2.90
2023-05-02T23:42:36.481Z,2.60
2023-05-02T23:45:08.839Z,2.90
2023-05-02T23:47:36.517Z,2.40
2023-05-02T23:50:04.767Z,2.53
2023-05-02T23:52:31.626Z,2.78
2023-05-02T23:54:58.292Z,2.42
2023-05-02T23:57:24.978Z,2.67
2023-05-02T23:59:51.807Z,3.17
